createdAt,value
2019-01-02T00:00:22.893Z,0.00
2019-01-02T00:01:22.838Z,0.00
2019-01-02T00:02:22.814Z,0.00
2019-01-02T00:03:22.769Z,0.00
2019-01-02T00:04:22.717Z,0.00
2019-01-02T00:05:22.680Z,0.00
2019-01-02T00:06:22.615Z,0.00
2019-01-02T00:07:22.570Z,0.00
2019-01-02T00:08:22.526Z,0.00
2019-01-02T00:09:22.484Z,0.00
2019-01-02T00:10:22.450Z,0.00
2019-01-02T00:11:22.416Z,0.00
2019-01-02T00:12:22.362Z,0.00
2019-01-02T00:13:22.304Z,0.00
2019-01-02T00:14:22.281Z,0.00
2019-01-02T00:15:22.217Z,0.00
2019-01-02T00:16:22.172Z,0.00
2019-01-02T00:17:22.148Z,0.00
2019-01-02T00:18:22.090Z,0.00
2019-01-02T00:19:22.045Z,0.00
2019-01-02T00:20:22.015Z,0.00
2019-01-02T00:21:21.970Z,0.00
2019-01-02T00:22:21.915Z,0.00
2019-01-02T00:23:21.882Z,0.00
2019-01-02T00:24:21.818Z,0.00
2019-01-02T00:25:21.792Z,0.00
2019-01-02T00:26:21.750Z,0.00
2019-01-02T00:27:21.699Z,0.00
2019-01-02T00:28:21.659Z,0.00
2019-01-02T00:29:21.595Z,0.00
2019-01-02T00:30:21.563Z,0.00
2019-01-02T00:31:21.518Z,0.00
2019-01-02T00:32:21.473Z,0.00
2019-01-02T00:33:21.426Z,0.00
2019-01-02T00:34:21.387Z,0.00
2019-01-02T00:35:21.335Z,0.00
2019-01-02T00:36:21.304Z,0.00
2019-01-02T00:37:21.260Z,0.00
2019-01-02T00:38:21.201Z,0.00
2019-01-02T00:39:21.166Z,0.00
2019-01-02T00:40:21.106Z,0.00
2019-01-02T00:41:21.074Z,0.00
2019-01-02T00:42:21.030Z,0.00
2019-01-02T00:43:20.985Z,0.00
2019-01-02T00:44:20.942Z,0.00
2019-01-02T00:45:22.568Z,0.00
2019-01-02T00:46:20.846Z,0.00
2019-01-02T00:47:20.803Z,0.00
2019-01-02T00:48:20.763Z,0.00
2019-01-02T00:49:20.706Z,0.00
2019-01-02T00:50:20.670Z,0.00
2019-01-02T00:51:20.638Z,0.00
2019-01-02T00:52:20.581Z,0.00
2019-01-02T00:53:20.550Z,0.00
2019-01-02T00:54:20.496Z,0.00
2019-01-02T00:55:20.439Z,0.00
2019-01-02T00:56:20.416Z,0.00
2019-01-02T00:57:20.368Z,0.00
2019-01-02T00:58:20.319Z,0.00
2019-01-02T00:59:20.283Z,0.00
2019-01-02T01:00:20.220Z,0.00
2019-01-02T01:01:20.181Z,0.00
2019-01-02T01:02:20.150Z,0.00
2019-01-02T01:03:20.105Z,0.00
2019-01-02T01:04:20.061Z,0.00
2019-01-02T01:05:19.998Z,0.00
2019-01-02T01:06:19.959Z,0.00
2019-01-02T01:07:19.917Z,0.00
2019-01-02T01:08:19.875Z,0.00
2019-01-02T01:09:19.818Z,0.00
2019-01-02T01:10:19.787Z,0.00
2019-01-02T01:11:19.741Z,0.00
2019-01-02T01:12:19.696Z,0.00
2019-01-02T01:13:19.641Z,0.00
2019-01-02T01:14:19.603Z,0.00
2019-01-02T01:15:19.564Z,0.00
2019-01-02T01:16:19.518Z,0.00
2019-01-02T01:17:19.461Z,0.00
2019-01-02T01:18:19.429Z,0.00
2019-01-02T01:19:19.393Z,0.00
2019-01-02T01:20:19.336Z,0.00
2019-01-02T01:21:19.283Z,0.00
2019-01-02T01:22:19.251Z,0.00
2019-01-02T01:23:19.215Z,0.00
2019-01-02T01:24:19.162Z,0.00
2019-01-02T01:25:19.117Z,0.00
2019-01-02T01:26:19.072Z,0.00
2019-01-02T01:27:19.028Z,0.00
2019-01-02T01:28:18.992Z,0.00
2019-01-02T01:29:18.926Z,0.00
2019-01-02T01:30:18.897Z,0.00
2019-01-02T01:31:18.862Z,0.00
2019-01-02T01:32:18.800Z,0.00
2019-01-02T01:33:18.748Z,0.00
2019-01-02T01:34:18.725Z,0.00
2019-01-02T01:35:18.670Z,0.00
2019-01-02T01:36:18.622Z,0.00
2019-01-02T01:37:18.594Z,0.00
2019-01-02T01:38:18.525Z,0.00
2019-01-02T01:39:18.493Z,0.00
2019-01-02T01:40:18.458Z,0.00
2019-01-02T01:41:18.402Z,0.00
2019-01-02T01:42:18.368Z,0.00
2019-01-02T01:43:18.311Z,0.00
2019-01-02T01:44:18.270Z,0.00
2019-01-02T01:45:18.221Z,0.00
2019-01-02T01:46:18.176Z,0.00
2019-01-02T01:47:18.131Z,0.00
2019-01-02T01:48:18.079Z,0.00
2019-01-02T01:49:18.048Z,0.00
2019-01-02T01:50:17.990Z,0.00
2019-01-02T01:51:17.952Z,0.00
2019-01-02T01:52:17.908Z,0.00
2019-01-02T01:53:17.869Z,0.00
2019-01-02T01:54:17.814Z,0.00
2019-01-02T01:55:17.775Z,0.00
2019-01-02T01:56:17.731Z,0.00
2019-01-02T01:57:17.678Z,0.00
2019-01-02T01:58:17.641Z,0.00
2019-01-02T01:59:17.610Z,0.00
2019-01-02T02:00:17.557Z,0.00
2019-01-02T02:01:17.521Z,0.00
2019-01-02T02:02:17.463Z,0.00
2019-01-02T02:03:17.419Z,0.00
2019-01-02T02:04:17.379Z,0.00
2019-01-02T02:05:17.328Z,0.00
2019-01-02T02:06:17.290Z,0.00
2019-01-02T02:07:17.232Z,0.00
2019-01-02T02:08:17.200Z,0.00
2019-01-02T02:09:17.181Z,0.00
2019-01-02T02:10:17.120Z,0.00
2019-01-02T02:11:17.061Z,0.00
2019-01-02T02:12:17.031Z,0.00
2019-01-02T02:13:16.968Z,0.00
2019-01-02T02:14:16.929Z,0.00
2019-01-02T02:15:16.883Z,0.00
2019-01-02T02:16:16.831Z,0.00
2019-01-02T02:17:16.799Z,0.00
2019-01-02T02:18:16.755Z,0.00
2019-01-02T02:19:16.721Z,0.00
2019-01-02T02:20:16.666Z,0.00
2019-01-02T02:21:16.617Z,0.00
2019-01-02T02:22:16.587Z,0.00
2019-01-02T02:23:16.552Z,0.00
2019-01-02T02:24:16.484Z,0.00
2019-01-02T02:25:16.438Z,0.00
2019-01-02T02:26:16.390Z,0.00
2019-01-02T02:27:16.349Z,0.00
2019-01-02T02:28:16.311Z,0.00
2019-01-02T02:29:16.255Z,0.00
2019-01-02T02:30:16.232Z,0.00
2019-01-02T02:31:16.164Z,0.00
2019-01-02T02:32:16.127Z,0.00
2019-01-02T02:33:16.096Z,0.00
2019-01-02T02:34:16.043Z,0.00
2019-01-02T02:35:15.999Z,0.00
2019-01-02T02:36:15.948Z,0.00
2019-01-02T02:37:15.918Z,0.00
2019-01-02T02:38:15.852Z,0.00
2019-01-02T02:39:15.814Z,0.00
2019-01-02T02:40:15.786Z,0.00
2019-01-02T02:41:15.740Z,0.00
2019-01-02T02:42:15.681Z,0.00
2019-01-02T02:43:15.643Z,0.00
2019-01-02T02:44:15.584Z,0.00
2019-01-02T02:45:15.547Z,0.00
2019-01-02T02:46:15.504Z,0.00
2019-01-02T02:47:15.459Z,0.00
2019-01-02T02:48:15.428Z,0.00
2019-01-02T02:49:15.375Z,0.00
2019-01-02T02:50:15.329Z,0.00
2019-01-02T02:51:15.299Z,0.00
2019-01-02T02:52:15.228Z,0.00
2019-01-02T02:53:15.206Z,0.00
2019-01-02T02:54:15.146Z,0.00
2019-01-02T02:55:15.103Z,0.00
2019-01-02T02:56:15.071Z,0.00
2019-01-02T02:57:15.027Z,0.00
2019-01-02T02:58:14.974Z,0.00
2019-01-02T02:59:14.938Z,0.00
2019-01-02T03:00:14.872Z,0.00
2019-01-02T03:01:14.841Z,0.00
2019-01-02T03:02:14.805Z,0.00
2019-01-02T03:03:14.754Z,0.00
2019-01-02T03:04:14.701Z,0.00
2019-01-02T03:05:14.657Z,0.00
2019-01-02T03:06:14.605Z,0.00
2019-01-02T03:07:14.574Z,0.00
2019-01-02T03:08:14.541Z,0.00
2019-01-02T03:09:14.484Z,0.00
2019-01-02T03:10:14.438Z,0.00
2019-01-02T03:11:14.395Z,0.00
2019-01-02T03:12:14.359Z,0.00
2019-01-02T03:13:14.294Z,0.00
2019-01-02T03:14:14.249Z,0.00
2019-01-02T03:15:14.213Z,0.00
2019-01-02T03:16:14.168Z,0.00
2019-01-02T03:17:14.115Z,0.00
2019-01-02T03:18:14.083Z,0.00
2019-01-02T03:19:14.026Z,0.00
2019-01-02T03:20:13.987Z,0.00
2019-01-02T03:21:13.950Z,0.00
2019-01-02T03:22:13.901Z,0.00
2019-01-02T03:23:13.861Z,0.00
2019-01-02T03:24:13.826Z,0.00
2019-01-02T03:25:13.781Z,0.00
2019-01-02T03:26:13.714Z,0.00
2019-01-02T03:27:13.678Z,0.00
2019-01-02T03:28:13.638Z,0.00
2019-01-02T03:29:13.593Z,0.00
2019-01-02T03:30:13.558Z,0.00
2019-01-02T03:31:13.508Z,0.00
2019-01-02T03:32:13.469Z,0.00
2019-01-02T03:33:13.415Z,0.00
2019-01-02T03:34:13.357Z,0.00
2019-01-02T03:35:13.335Z,0.00
2019-01-02T03:36:13.268Z,0.00
2019-01-02T03:37:13.244Z,0.00
2019-01-02T03:38:13.191Z,0.00
2019-01-02T03:39:13.142Z,0.00
2019-01-02T03:40:13.102Z,0.00
2019-01-02T03:41:13.045Z,0.00
2019-01-02T03:42:13.008Z,0.00
2019-01-02T03:43:12.956Z,0.00
2019-01-02T03:44:12.911Z,0.00
2019-01-02T03:45:12.876Z,0.00
2019-01-02T03:46:12.834Z,0.00
2019-01-02T03:47:12.777Z,0.00
2019-01-02T03:48:12.737Z,0.00
2019-01-02T03:49:12.700Z,0.00
2019-01-02T03:50:12.655Z,0.00
2019-01-02T03:51:12.614Z,0.00
2019-01-02T03:52:12.579Z,0.00
2019-01-02T03:53:12.521Z,0.00
2019-01-02T03:54:12.486Z,0.00
2019-01-02T03:55:12.464Z,0.00
2019-01-02T03:56:12.395Z,0.00
2019-01-02T03:57:12.342Z,0.00
2019-01-02T03:58:12.308Z,0.00
2019-01-02T03:59:12.262Z,0.00
2019-01-02T04:00:12.203Z,0.00
2019-01-02T04:01:12.151Z,0.00
2019-01-02T04:02:12.119Z,0.00
2019-01-02T04:03:12.061Z,0.00
2019-01-02T04:04:12.024Z,0.00
2019-01-02T04:05:11.980Z,0.00
2019-01-02T04:06:11.942Z,0.00
2019-01-02T04:07:11.882Z,0.00
2019-01-02T04:08:11.839Z,0.00
2019-01-02T04:09:11.806Z,0.00
2019-01-02T04:10:11.763Z,0.00
2019-01-02T04:11:11.716Z,0.00
2019-01-02T04:12:11.662Z,0.00
2019-01-02T04:13:11.614Z,0.00
2019-01-02T04:14:11.577Z,0.00
2019-01-02T04:15:11.537Z,0.00
2019-01-02T04:16:11.492Z,0.00
2019-01-02T04:17:11.443Z,0.00
2019-01-02T04:18:11.395Z,0.00
2019-01-02T04:19:11.367Z,0.00
2019-01-02T04:20:11.308Z,0.00
2019-01-02T04:21:11.264Z,0.00
2019-01-02T04:22:11.214Z,0.00
2019-01-02T04:23:11.179Z,0.00
2019-01-02T04:24:11.122Z,0.00
2019-01-02T04:25:11.098Z,0.00
2019-01-02T04:26:11.045Z,0.00
2019-01-02T04:27:10.988Z,0.00
2019-01-02T04:28:10.950Z,0.00
2019-01-02T04:29:10.905Z,0.00
2019-01-02T04:30:10.878Z,0.00
2019-01-02T04:31:10.821Z,0.00
2019-01-02T04:32:10.765Z,0.00
2019-01-02T04:33:10.728Z,0.00
2019-01-02T04:34:10.697Z,0.00
2019-01-02T04:35:10.633Z,0.00
2019-01-02T04:36:10.585Z,0.00
2019-01-02T04:37:10.549Z,0.00
2019-01-02T04:38:10.518Z,0.00
2019-01-02T04:39:10.466Z,0.00
2019-01-02T04:40:10.586Z,0.00
2019-01-02T04:41:10.375Z,0.00
2019-01-02T04:42:10.330Z,0.00
2019-01-02T04:43:10.294Z,0.00
2019-01-02T04:44:10.228Z,0.00
2019-01-02T04:45:10.183Z,0.00
2019-01-02T04:46:10.161Z,0.00
2019-01-02T04:47:10.115Z,0.00
2019-01-02T04:48:10.062Z,0.00
2019-01-02T04:49:10.026Z,0.00
2019-01-02T04:50:09.967Z,0.00
2019-01-02T04:51:09.916Z,0.00
2019-01-02T04:52:09.884Z,0.00
2019-01-02T04:53:09.834Z,0.00
2019-01-02T04:54:09.789Z,0.00
2019-01-02T04:55:09.758Z,0.00
2019-01-02T04:56:09.705Z,0.00
2019-01-02T04:57:09.675Z,0.00
2019-01-02T04:58:09.616Z,0.00
2019-01-02T04:59:09.568Z,0.00
2019-01-02T05:00:09.513Z,0.00
2019-01-02T05:01:09.481Z,0.00
2019-01-02T05:02:09.431Z,0.00
2019-01-02T05:03:09.399Z,0.00
2019-01-02T05:04:09.350Z,0.00
2019-01-02T05:05:09.297Z,0.00
2019-01-02T05:06:09.267Z,0.00
2019-01-02T05:07:09.222Z,0.00
2019-01-02T05:08:09.179Z,0.00
2019-01-02T05:09:09.111Z,0.00
2019-01-02T05:10:09.080Z,0.00
2019-01-02T05:11:09.022Z,0.00
2019-01-02T05:12:08.991Z,0.00
2019-01-02T05:13:08.946Z,0.00
2019-01-02T05:14:08.901Z,0.00
2019-01-02T05:15:08.858Z,0.00
2019-01-02T05:16:08.804Z,0.00
2019-01-02T05:17:08.761Z,0.00
2019-01-02T05:18:08.722Z,0.00
2019-01-02T05:19:08.678Z,0.00
2019-01-02T05:20:08.642Z,0.00
2019-01-02T05:21:08.585Z,0.00
2019-01-02T05:22:08.556Z,0.00
2019-01-02T05:23:08.493Z,0.00
2019-01-02T05:24:08.454Z,0.00
2019-01-02T05:25:08.406Z,0.00
2019-01-02T05:26:08.360Z,0.00
2019-01-02T05:27:08.315Z,0.00
2019-01-02T05:28:08.273Z,0.00
2019-01-02T05:29:08.237Z,0.00
2019-01-02T05:30:08.176Z,0.00
2019-01-02T05:31:08.141Z,0.00
2019-01-02T05:32:08.084Z,0.00
2019-01-02T05:33:08.053Z,0.00
2019-01-02T05:34:08.007Z,0.00
2019-01-02T05:35:07.971Z,0.00
2019-01-02T05:36:07.918Z,0.00
2019-01-02T05:37:07.868Z,0.00
2019-01-02T05:38:07.829Z,0.00
2019-01-02T05:39:07.784Z,0.00
2019-01-02T05:40:07.746Z,0.00
2019-01-02T05:41:07.706Z,0.00
2019-01-02T05:42:07.637Z,0.00
2019-01-02T05:43:07.601Z,0.00
2019-01-02T05:44:07.555Z,0.00
2019-01-02T05:45:07.512Z,0.00
2019-01-02T05:46:07.480Z,0.00
2019-01-02T05:47:07.439Z,0.00
2019-01-02T05:48:07.378Z,0.00
2019-01-02T05:49:07.324Z,0.00
2019-01-02T05:50:07.291Z,0.00
2019-01-02T05:51:07.244Z,0.00
2019-01-02T05:52:07.194Z,0.00
2019-01-02T05:53:07.159Z,0.00
2019-01-02T05:54:07.110Z,0.00
2019-01-02T05:55:07.057Z,0.00
2019-01-02T05:56:07.020Z,0.00
2019-01-02T05:57:06.975Z,0.00
2019-01-02T05:58:06.936Z,0.00
2019-01-02T05:59:06.894Z,0.00
2019-01-02T06:00:06.843Z,0.00
2019-01-02T06:01:06.802Z,0.00
2019-01-02T06:02:06.758Z,0.00
2019-01-02T06:03:06.708Z,0.00
2019-01-02T06:04:06.677Z,0.00
2019-01-02T06:05:06.619Z,0.00
2019-01-02T06:06:06.587Z,0.00
2019-01-02T06:07:06.523Z,0.00
2019-01-02T06:08:06.487Z,0.00
2019-01-02T06:09:06.432Z,0.00
2019-01-02T06:10:06.400Z,0.00
2019-01-02T06:11:06.355Z,0.00
2019-01-02T06:12:06.319Z,0.00
2019-01-02T06:13:06.262Z,0.00
2019-01-02T06:14:06.216Z,0.00
2019-01-02T06:15:06.177Z,0.00
2019-01-02T06:16:06.119Z,0.00
2019-01-02T06:17:06.082Z,0.00
2019-01-02T06:18:06.038Z,0.00
2019-01-02T06:19:06.017Z,0.00
2019-01-02T06:20:05.953Z,0.00
2019-01-02T06:21:05.909Z,0.00
2019-01-02T06:22:05.852Z,0.00
2019-01-02T06:23:05.828Z,0.00
2019-01-02T06:24:05.774Z,0.00
2019-01-02T06:25:05.731Z,0.00
2019-01-02T06:26:05.694Z,0.00
2019-01-02T06:27:05.639Z,0.00
2019-01-02T06:28:05.596Z,0.00
2019-01-02T06:29:05.546Z,0.00
2019-01-02T06:30:05.501Z,0.00
2019-01-02T06:31:05.457Z,0.00
2019-01-02T06:32:05.407Z,0.00
2019-01-02T06:33:05.382Z,0.00
2019-01-02T06:34:05.338Z,0.00
2019-01-02T06:35:05.281Z,0.00
2019-01-02T06:36:05.226Z,0.00
2019-01-02T06:37:05.181Z,0.00
2019-01-02T06:38:05.144Z,0.00
2019-01-02T06:39:05.092Z,0.00
2019-01-02T06:40:05.061Z,0.00
2019-01-02T06:41:05.027Z,0.00
2019-01-02T06:42:04.971Z,0.00
2019-01-02T06:43:04.934Z,0.00
2019-01-02T06:44:04.884Z,0.00
2019-01-02T06:45:04.837Z,0.00
2019-01-02T06:46:04.779Z,0.00
2019-01-02T06:47:04.747Z,0.00
2019-01-02T06:48:04.700Z,0.00
2019-01-02T06:49:04.666Z,0.00
2019-01-02T06:50:04.600Z,0.00
2019-01-02T06:51:04.577Z,0.00
2019-01-02T06:52:04.513Z,0.00
2019-01-02T06:53:04.466Z,0.00
2019-01-02T06:54:04.430Z,0.00
2019-01-02T06:55:04.398Z,0.00
2019-01-02T06:56:04.345Z,0.00
2019-01-02T06:57:04.309Z,0.00
2019-01-02T06:58:04.256Z,0.00
2019-01-02T06:59:04.198Z,0.00
2019-01-02T07:00:04.181Z,0.00
2019-01-02T07:01:04.121Z,0.00
2019-01-02T07:02:04.073Z,0.00
2019-01-02T07:03:04.019Z,0.00
2019-01-02T07:04:03.987Z,0.00
2019-01-02T07:05:03.942Z,0.00
2019-01-02T07:06:03.889Z,0.00
2019-01-02T07:07:03.841Z,0.00
2019-01-02T07:08:03.818Z,0.00
2019-01-02T07:09:03.752Z,0.00
2019-01-02T07:10:03.719Z,0.00
2019-01-02T07:11:03.670Z,0.00
2019-01-02T07:12:03.625Z,0.00
2019-01-02T07:13:03.583Z,0.00
2019-01-02T07:14:03.549Z,0.00
2019-01-02T07:15:03.482Z,0.00
2019-01-02T07:16:03.450Z,0.00
2019-01-02T07:17:03.405Z,0.00
2019-01-02T07:18:03.361Z,0.00
2019-01-02T07:19:03.303Z,0.00
2019-01-02T07:20:03.258Z,0.00
2019-01-02T07:21:03.235Z,0.00
2019-01-02T07:22:03.177Z,0.00
2019-01-02T07:23:03.124Z,0.00
2019-01-02T07:24:03.101Z,0.00
2019-01-02T07:25:03.035Z,0.00
2019-01-02T07:26:02.990Z,0.00
2019-01-02T07:27:02.954Z,0.00
2019-01-02T07:28:02.909Z,0.00
2019-01-02T07:29:02.877Z,0.00
2019-01-02T07:30:02.815Z,0.00
2019-01-02T07:31:02.779Z,0.00
2019-01-02T07:32:02.730Z,0.00
2019-01-02T07:33:02.685Z,0.00
2019-01-02T07:34:02.647Z,0.00
2019-01-02T07:35:02.593Z,0.00
2019-01-02T07:36:02.543Z,0.00
2019-01-02T07:37:02.498Z,0.00
2019-01-02T07:38:02.453Z,0.00
2019-01-02T07:39:02.422Z,0.00
2019-01-02T07:40:02.372Z,0.00
2019-01-02T07:41:02.330Z,0.00
2019-01-02T07:42:02.295Z,0.00
2019-01-02T07:43:02.238Z,0.00
2019-01-02T07:44:02.197Z,0.00
2019-01-02T07:45:02.139Z,0.00
2019-01-02T07:46:02.108Z,0.00
2019-01-02T07:47:02.063Z,0.00
2019-01-02T07:48:02.027Z,0.00
2019-01-02T07:49:01.982Z,0.00
2019-01-02T07:50:01.930Z,0.00
2019-01-02T07:51:01.892Z,0.00
2019-01-02T07:52:01.834Z,0.00
2019-01-02T07:53:01.794Z,0.00
2019-01-02T07:54:01.749Z,0.00
2019-01-02T07:55:01.696Z,0.00
2019-01-02T07:56:01.668Z,4.00
2019-01-02T07:57:01.602Z,0.00
2019-01-02T07:58:01.566Z,0.00
2019-01-02T07:59:01.534Z,4.00
2019-01-02T08:00:01.495Z,4.00
2019-01-02T08:01:01.435Z,4.00
2019-01-02T08:02:01.399Z,8.00
2019-01-02T08:03:01.333Z,4.00
2019-01-02T08:04:01.309Z,8.00
2019-01-02T08:05:01.257Z,8.00
2019-01-02T08:06:01.211Z,16.00
2019-01-02T08:07:01.167Z,16.00
2019-01-02T08:08:01.109Z,20.00
2019-01-02T08:09:01.085Z,24.00
2019-01-02T08:10:01.041Z,32.00
2019-01-02T08:11:00.995Z,40.00
2019-01-02T08:12:00.943Z,48.00
2019-01-02T08:13:00.886Z,60.00
2019-01-02T08:14:00.861Z,68.00
2019-01-02T08:15:03.197Z,84.00
2019-01-02T08:16:00.750Z,96.00
2019-01-02T08:17:00.705Z,112.00
2019-01-02T08:18:00.660Z,124.00
2019-01-02T08:19:00.615Z,144.00
2019-01-02T08:20:00.592Z,164.00
2019-01-02T08:21:00.534Z,184.00
2019-01-02T08:22:00.484Z,208.00
2019-01-02T08:23:00.471Z,232.00
2019-01-02T08:24:00.413Z,256.00
2019-01-02T08:25:00.412Z,288.00
2019-01-02T08:26:00.314Z,320.00
2019-01-02T08:27:00.274Z,356.00
2019-01-02T08:28:00.233Z,392.00
2019-01-02T08:29:00.188Z,436.00
2019-01-02T08:30:00.232Z,476.00
2019-01-02T08:31:00.090Z,524.00
2019-01-02T08:32:00.040Z,572.00
2019-01-02T08:33:00.009Z,628.00
2019-01-02T08:33:59.964Z,684.00
2019-01-02T08:34:59.900Z,752.00
2019-01-02T08:35:59.861Z,816.00
2019-01-02T08:36:59.808Z,896.00
2019-01-02T08:37:59.763Z,976.00
2019-01-02T08:38:59.731Z,1072.00
2019-01-02T08:39:59.686Z,1164.00
2019-01-02T08:40:59.650Z,1252.00
2019-01-02T08:41:59.591Z,1348.00
2019-01-02T08:42:59.546Z,1472.00
2019-01-02T08:43:59.494Z,1636.00
2019-01-02T08:44:59.462Z,3080.00
2019-01-02T08:45:59.426Z,4740.00
2019-01-02T08:46:59.367Z,4464.00
2019-01-02T08:47:59.339Z,3452.00
2019-01-02T08:48:59.284Z,2568.00
2019-01-02T08:49:59.237Z,2344.00
2019-01-02T08:50:59.194Z,4028.00
2019-01-02T08:51:59.157Z,7308.00
2019-01-02T08:52:59.114Z,7052.00
2019-01-02T08:53:59.054Z,4624.00
2019-01-02T08:54:59.015Z,6444.00
2019-01-02T08:55:58.978Z,8944.00
2019-01-02T08:56:58.912Z,10216.00
2019-01-02T08:57:58.892Z,13888.00
2019-01-02T08:58:58.846Z,13536.00
2019-01-02T08:59:58.788Z,8496.00
2019-01-02T09:00:58.752Z,5112.00
2019-01-02T09:01:58.705Z,4240.00
2019-01-02T09:02:58.648Z,5424.00
2019-01-02T09:03:58.625Z,6500.00
2019-01-02T09:04:58.570Z,7652.00
2019-01-02T09:05:58.524Z,6036.00
2019-01-02T09:06:58.472Z,4356.00
2019-01-02T09:07:58.429Z,4464.00
2019-01-02T09:08:58.407Z,7120.00
2019-01-02T09:09:58.351Z,10560.00
2019-01-02T09:10:58.297Z,8900.00
2019-01-02T09:11:58.266Z,9628.00
2019-01-02T09:12:58.222Z,16480.00
2019-01-02T09:13:58.178Z,18848.00
2019-01-02T09:14:58.122Z,13236.00
2019-01-02T09:15:58.091Z,18272.00
2019-01-02T09:16:58.043Z,25216.00
2019-01-02T09:17:58.000Z,20864.00
2019-01-02T09:18:57.955Z,15168.00
2019-01-02T09:19:57.904Z,10848.00
2019-01-02T09:20:57.865Z,9176.00
2019-01-02T09:21:57.825Z,8640.00
2019-01-02T09:22:57.783Z,7764.00
2019-01-02T09:23:57.747Z,16608.00
2019-01-02T09:24:57.697Z,24832.00
2019-01-02T09:25:57.646Z,17760.00
2019-01-02T09:26:57.610Z,10120.00
2019-01-02T09:27:57.560Z,8244.00
2019-01-02T09:28:57.518Z,9836.00
2019-01-02T09:29:57.488Z,16640.00
2019-01-02T09:30:57.432Z,26912.00
2019-01-02T09:31:57.400Z,39296.00
2019-01-02T09:32:57.361Z,51840.00
2019-01-02T09:33:57.317Z,53440.00
2019-01-02T09:34:57.284Z,53344.00
2019-01-02T09:35:57.294Z,49696.00
2019-01-02T09:36:57.200Z,52096.00
2019-01-02T09:37:57.149Z,53568.00
2019-01-02T09:38:57.183Z,57248.00
2019-01-02T09:39:57.077Z,58144.00
2019-01-02T09:40:57.037Z,55168.00
2019-01-02T09:41:56.989Z,56736.00
2019-01-02T09:42:56.944Z,60224.00
2019-01-02T09:43:56.897Z,59232.00
2019-01-02T09:44:56.857Z,59040.00
2019-01-02T09:45:56.819Z,62784.00
2019-01-02T09:46:56.793Z,64352.00
2019-01-02T09:47:56.836Z,55360.00
2019-01-02T09:48:56.712Z,51104.00
2019-01-02T09:49:56.675Z,66208.00
2019-01-02T09:50:56.628Z,63296.00
2019-01-02T09:51:56.606Z,63328.00
2019-01-02T09:52:56.564Z,62208.00
2019-01-02T09:53:56.675Z,65696.00
2019-01-02T09:55:01.354Z,65856.00
2019-01-02T09:55:56.451Z,66208.00
2019-01-02T09:56:56.416Z,70400.00
2019-01-02T09:57:56.387Z,66944.00
2019-01-02T09:58:56.344Z,66656.00
2019-01-02T09:59:56.302Z,68896.00
2019-01-02T10:00:56.279Z,65952.00
2019-01-02T10:01:56.231Z,66560.00
2019-01-02T10:02:56.210Z,68800.00
2019-01-02T10:03:56.163Z,71616.00
2019-01-02T10:04:56.140Z,76288.00
2019-01-02T10:05:56.103Z,73920.00
2019-01-02T10:06:56.083Z,71328.00
2019-01-02T10:07:56.028Z,64288.00
2019-01-02T10:08:56.003Z,68896.00
2019-01-02T10:09:55.962Z,81664.00
2019-01-02T10:10:55.943Z,80576.00
2019-01-02T10:11:55.911Z,77088.00
2019-01-02T10:12:55.878Z,75392.00
2019-01-02T10:13:55.854Z,67008.00
2019-01-02T10:14:55.821Z,65024.00
2019-01-02T10:15:55.768Z,69280.00
2019-01-02T10:16:55.737Z,31552.00
2019-01-02T10:17:55.727Z,21376.00
2019-01-02T10:18:55.695Z,48608.00
2019-01-02T10:19:55.654Z,61984.00
2019-01-02T10:20:55.631Z,70624.00
2019-01-02T10:21:55.578Z,82080.00
2019-01-02T10:22:55.546Z,82720.00
2019-01-02T10:23:55.526Z,78048.00
2019-01-02T10:24:55.481Z,73280.00
2019-01-02T10:25:55.457Z,73440.00
2019-01-02T10:26:55.418Z,72704.00
2019-01-02T10:27:55.408Z,67872.00
2019-01-02T10:28:55.364Z,64160.00
2019-01-02T10:29:55.324Z,63520.00
2019-01-02T10:30:55.309Z,63008.00
2019-01-02T10:31:55.270Z,60736.00
2019-01-02T10:32:55.240Z,53888.00
2019-01-02T10:33:55.208Z,31520.00
2019-01-02T10:34:55.182Z,20448.00
2019-01-02T10:35:55.139Z,19040.00
2019-01-02T10:36:55.145Z,17600.00
2019-01-02T10:37:55.090Z,14312.00
2019-01-02T10:38:55.046Z,11592.00
2019-01-02T10:39:55.024Z,9896.00
2019-01-02T10:40:54.987Z,9432.00
2019-01-02T10:41:54.958Z,9132.00
2019-01-02T10:42:54.925Z,8872.00
2019-01-02T10:43:54.891Z,8884.00
2019-01-02T10:44:54.853Z,8844.00
2019-01-02T10:45:54.809Z,8836.00
2019-01-02T10:46:54.795Z,8868.00
2019-01-02T10:47:54.746Z,8920.00
2019-01-02T10:48:54.702Z,8968.00
2019-01-02T10:49:54.666Z,9112.00
2019-01-02T10:50:54.637Z,9124.00
2019-01-02T10:51:54.609Z,9372.00
2019-01-02T10:52:54.576Z,9392.00
2019-01-02T10:53:54.538Z,9296.00
2019-01-02T10:54:54.492Z,9336.00
2019-01-02T10:55:54.464Z,9420.00
2019-01-02T10:56:54.428Z,9436.00
2019-01-02T10:57:54.372Z,9364.00
2019-01-02T10:58:54.328Z,9548.00
2019-01-02T10:59:54.308Z,9444.00
2019-01-02T11:00:54.255Z,9244.00
2019-01-02T11:01:54.222Z,9120.00
2019-01-02T11:02:54.182Z,9252.00
2019-01-02T11:03:54.151Z,9400.00
2019-01-02T11:04:54.111Z,9460.00
2019-01-02T11:05:54.059Z,8996.00
2019-01-02T11:06:54.032Z,8684.00
2019-01-02T11:07:53.986Z,8596.00
2019-01-02T11:08:53.931Z,8672.00
2019-01-02T11:09:53.912Z,8556.00
2019-01-02T11:10:53.858Z,8608.00
2019-01-02T11:11:53.819Z,8712.00
2019-01-02T11:12:53.779Z,8672.00
2019-01-02T11:13:53.745Z,8824.00
2019-01-02T11:14:53.689Z,8948.00
2019-01-02T11:15:53.670Z,9116.00
2019-01-02T11:16:53.608Z,9296.00
2019-01-02T11:17:53.594Z,9448.00
2019-01-02T11:18:53.541Z,9460.00
2019-01-02T11:19:53.500Z,9560.00
2019-01-02T11:20:53.456Z,9628.00
2019-01-02T11:21:53.410Z,9704.00
2019-01-02T11:22:53.365Z,9844.00
2019-01-02T11:23:53.325Z,9952.00
2019-01-02T11:24:53.284Z,10112.00
2019-01-02T11:25:53.244Z,10168.00
2019-01-02T11:26:53.205Z,10204.00
2019-01-02T11:27:53.183Z,10036.00
2019-01-02T11:28:53.128Z,9880.00
2019-01-02T11:29:53.101Z,9752.00
2019-01-02T11:30:53.061Z,9776.00
2019-01-02T11:31:53.020Z,9804.00
2019-01-02T11:32:52.965Z,9680.00
2019-01-02T11:33:52.917Z,9652.00
2019-01-02T11:34:52.896Z,9696.00
2019-01-02T11:35:52.856Z,9596.00
2019-01-02T11:36:52.793Z,9480.00
2019-01-02T11:37:52.770Z,9324.00
2019-01-02T11:38:53.201Z,9304.00
2019-01-02T11:39:52.683Z,9240.00
2019-01-02T11:40:52.642Z,9136.00
2019-01-02T11:41:52.595Z,8956.00
2019-01-02T11:42:52.556Z,8720.00
2019-01-02T11:43:52.506Z,8564.00
2019-01-02T11:44:52.472Z,8436.00
2019-01-02T11:45:52.432Z,8248.00
2019-01-02T11:46:52.390Z,8220.00
2019-01-02T11:47:52.345Z,8100.00
2019-01-02T11:48:52.314Z,7944.00
2019-01-02T11:49:52.260Z,7828.00
2019-01-02T11:50:52.227Z,7724.00
2019-01-02T11:51:52.190Z,7764.00
2019-01-02T11:52:52.136Z,7836.00
2019-01-02T11:53:52.108Z,7840.00
2019-01-02T11:54:52.069Z,8000.00
2019-01-02T11:55:52.013Z,8096.00
2019-01-02T11:56:51.989Z,8164.00
2019-01-02T11:57:51.939Z,8196.00
2019-01-02T11:58:51.889Z,8232.00
2019-01-02T11:59:51.858Z,8188.00
2019-01-02T12:00:51.816Z,8208.00
2019-01-02T12:01:51.779Z,8220.00
2019-01-02T12:02:51.727Z,8188.00
2019-01-02T12:03:51.684Z,8116.00
2019-01-02T12:04:51.654Z,8088.00
2019-01-02T12:05:51.609Z,8064.00
2019-01-02T12:06:51.569Z,8016.00
2019-01-02T12:07:51.531Z,8036.00
2019-01-02T12:08:51.478Z,8128.00
2019-01-02T12:09:51.458Z,7196.00
2019-01-02T12:10:51.408Z,8696.00
2019-01-02T12:11:51.361Z,8584.00
2019-01-02T12:12:51.320Z,9248.00
2019-01-02T12:13:51.311Z,9120.00
2019-01-02T12:14:56.931Z,8992.00
2019-01-02T12:15:56.973Z,7984.00
2019-01-02T12:16:56.931Z,8632.00
2019-01-02T12:17:56.882Z,8468.00
2019-01-02T12:18:56.840Z,8292.00
2019-01-02T12:19:56.822Z,7532.00
2019-01-02T12:20:56.771Z,8368.00
2019-01-02T12:21:56.724Z,8296.00
2019-01-02T12:22:56.688Z,6900.00
2019-01-02T12:23:56.648Z,8008.00
2019-01-02T12:24:56.615Z,7956.00
2019-01-02T12:25:56.552Z,8256.00
2019-01-02T12:26:56.520Z,7868.00
2019-01-02T12:27:56.483Z,7972.00
2019-01-02T12:28:56.429Z,8668.00
2019-01-02T12:29:56.388Z,7380.00
2019-01-02T12:30:56.356Z,7400.00
2019-01-02T12:31:56.307Z,9104.00
2019-01-02T12:32:56.265Z,8688.00
2019-01-02T12:33:56.224Z,7612.00
2019-01-02T12:34:56.183Z,7048.00
2019-01-02T12:35:56.150Z,8528.00
2019-01-02T12:36:56.101Z,8648.00
2019-01-02T12:37:56.073Z,8416.00
2019-01-02T12:38:56.034Z,8128.00
2019-01-02T12:39:55.991Z,8148.00
2019-01-02T12:40:55.937Z,8212.00
2019-01-02T12:41:55.905Z,8260.00
2019-01-02T12:42:55.858Z,8204.00
2019-01-02T12:43:55.815Z,8420.00
2019-01-02T12:44:55.773Z,8400.00
2019-01-02T12:45:55.739Z,7996.00
2019-01-02T12:46:55.713Z,8000.00
2019-01-02T12:47:55.650Z,7976.00